Time;durP1;ratioP1;P1;durP2;ratioP2;P2;SDS_P1;SDS_P2;PMS_P1;PMS_P2;Temp;Humidity;BMP_temperature;BMP_pressure;BME280_temperature;BME280_humidity;BME280_pressure;Samples;Min_cycle;Max_cycle;Signal;HPM_P1;HPM_P2
2022/05/13 00:00:02;;;;;;;3.28;0.80;;;;;;;22.42;37.27;101771.97;5035393;28;20551;-61
2022/05/13 00:02:43;;;;;;;3.65;0.90;;;;;;;22.41;37.45;101772.97;5034886;28;20438;-61
2022/05/13 00:05:12;;;;;;;2.83;0.98;;;;;;;22.41;37.27;101772.97;5035318;28;20104;-61
2022/05/13 00:07:37;;;;;;;2.90;0.90;;;;;;;22.40;37.01;101762.47;5035182;28;20032;-60
2022/05/13 00:10:06;;;;;;;2.78;0.80;;;;;;;22.40;37.02;101760.66;5035107;28;20384;-60
2022/05/13 00:12:40;;;;;;;4.32;1.40;;;;;;;22.39;37.18;101766.09;5035786;28;20098;-60
2022/05/13 00:15:10;;;;;;;3.08;0.85;;;;;;;22.40;37.07;101767.78;5034640;28;20025;-61
2022/05/13 00:17:35;;;;;;;3.60;1.42;;;;;;;22.39;37.29;101766.09;5035225;28;20042;-60
2022/05/13 00:20:02;;;;;;;4.55;0.88;;;;;;;22.39;37.09;101766.09;5034994;28;20029;-61
2022/05/13 00:22:28;;;;;;;3.58;0.90;;;;;;;22.35;37.04;101762.84;5034425;28;20033;-61
2022/05/13 00:24:58;;;;;;;2.15;0.80;;;;;;;22.34;37.37;101763.81;5034896;28;20094;-61
2022/05/13 00:27:24;;;;;;;2.90;0.80;;;;;;;22.35;37.20;101775.28;5035418;28;20022;-61
2022/05/13 00:29:49;;;;;;;3.58;1.45;;;;;;;22.33;37.19;101769.25;5034179;28;20033;-61
2022/05/13 00:32:19;;;;;;;3.03;1.00;;;;;;;22.32;37.18;101763.13;5035082;28;20147;-61
2022/05/13 00:34:44;;;;;;;4.35;1.15;;;;;;;22.31;37.12;101766.72;5035348;28;20496;-61
2022/05/13 00:37:12;;;;;;;3.08;0.93;;;;;;;22.32;37.19;101764.91;5034085;28;20040;-61
2022/05/13 00:39:37;;;;;;;2.80;0.85;;;;;;;22.31;37.01;101764.09;5035170;28;20029;-61
2022/05/13 00:42:17;;;;;;;3.33;1.03;;;;;;;22.31;37.15;101765.91;5034744;28;20120;-61
2022/05/13 00:44:52;;;;;;;3.03;0.95;;;;;;;22.30;37.02;101767.69;5034230;28;20638;-61
2022/05/13 00:47:18;;;;;;;2.80;0.90;;;;;;;22.31;37.26;101771.22;5034702;28;20037;-61
2022/05/13 00:49:44;;;;;;;4.15;1.02;;;;;;;22.29;37.01;101771.31;5034719;28;20029;-61
2022/05/13 00:52:11;;;;;;;2.92;1.48;;;;;;;22.27;37.08;101767.91;5033721;28;20022;-61
2022/05/13 00:54:39;;;;;;;3.15;0.98;;;;;;;22.26;37.12;101767.09;5034836;28;20028;-61
2022/05/13 00:57:05;;;;;;;3.00;1.05;;;;;;;22.26;37.15;101759.13;5033778;28;20038;-61
2022/05/13 00:59:33;;;;;;;3.90;0.90;;;;;;;22.26;37.17;101752.97;5034649;28;20029;-61
2022/05/13 01:01:58;;;;;;;3.28;0.88;;;;;;;22.26;36.71;101760.94;5034148;28;20021;-60
2022/05/13 01:04:24;;;;;;;2.75;0.90;;;;;;;22.23;37.05;101756.72;5034041;28;20075;-61
2022/05/13 01:06:53;;;;;;;3.83;1.10;;;;;;;22.23;36.99;101754.06;5034304;28;20084;-60
2022/05/13 01:09:22;;;;;;;2.65;0.80;;;;;;;22.23;36.93;101759.38;5034648;28;20048;-60
2022/05/13 01:11:54;;;;;;;2.50;1.10;;;;;;;22.24;36.82;101766.38;5033709;28;20519;-60
2022/05/13 01:14:28;;;;;;;3.80;1.33;;;;;;;22.24;37.07;101760.25;5034434;28;20025;-60
2022/05/13 01:19:44;;;;;;;2.88;0.80;;;;;;;22.21;36.95;101750.72;5033539;28;20092;-60
2022/05/13 01:22:16;;;;;;;3.47;0.88;;;;;;;22.21;36.80;101753.38;5033857;28;20068;-61
2022/05/13 01:24:43;;;;;;;2.92;0.90;;;;;;;22.21;36.90;101760.50;5033997;28;20033;-61
2022/05/13 01:27:08;;;;;;;2.97;1.05;;;;;;;22.21;36.90;101757.84;5032870;28;20030;-60
2022/05/13 01:29:34;;;;;;;2.65;0.80;;;;;;;22.19;36.74;101750.00;5034126;28;20021;-60
2022/05/13 01:31:59;;;;;;;2.83;0.80;;;;;;;22.20;36.78;101762.28;5033833;28;20018;-60
2022/05/13 01:34:24;;;;;;;3.72;0.80;;;;;;;22.19;36.60;101751.81;5033512;28;20049;-61
2022/05/13 01:36:52;;;;;;;2.97;1.00;;;;;;;22.18;36.76;101763.41;5033008;28;20029;-61
2022/05/13 01:39:18;;;;;;;3.25;0.90;;;;;;;22.17;36.75;101761.72;5032805;28;20271;-61
2022/05/13 01:41:43;;;;;;;2.75;0.90;;;;;;;22.16;36.48;101766.19;5033706;28;20029;-61
2022/05/13 01:44:09;;;;;;;3.65;0.95;;;;;;;22.16;36.71;101763.53;5033648;28;20029;-61
2022/05/13 01:46:34;;;;;;;2.13;0.70;;;;;;;22.15;36.56;101759.19;5033024;28;20430;-61
2022/05/13 01:49:00;;;;;;;2.57;0.70;;;;;;;22.16;36.35;101768.00;5033520;28;20026;-61
2022/05/13 01:51:25;;;;;;;2.78;0.80;;;;;;;22.15;36.82;101763.66;5033674;28;20277;-60
2022/05/13 01:53:51;;;;;;;4.38;1.00;;;;;;;22.15;36.58;101763.66;5032524;28;20032;-61
2022/05/13 01:56:17;;;;;;;4.38;0.98;;;;;;;22.14;36.54;101760.16;5033565;28;20380;-61
2022/05/13 01:58:42;;;;;;;2.05;0.73;;;;;;;22.14;36.77;101768.13;5033486;28;20021;-60
2022/05/13 02:01:08;;;;;;;2.58;0.90;;;;;;;22.14;36.30;101765.47;5032612;28;20032;-60
2022/05/13 02:06:22;;;;;;;3.10;0.80;;;;;;;22.14;36.56;101759.31;5033449;28;20087;-60
2022/05/13 02:08:50;;;;;;;2.75;0.90;;;;;;;22.14;36.53;101759.31;5032460;28;20033;-60
2022/05/13 02:11:15;;;;;;;3.35;0.82;;;;;;;22.11;36.71;101757.75;5033342;28;20091;-60
2022/05/13 02:13:41;;;;;;;2.33;0.75;;;;;;;22.12;36.77;101763.94;5033250;28;20473;-61
2022/05/13 02:16:06;;;;;;;2.95;0.80;;;;;;;22.11;36.44;101755.09;5032282;28;20076;-61
2022/05/13 02:18:31;;;;;;;2.92;0.88;;;;;;;22.10;36.52;101756.09;5033045;28;20144;-61
2022/05/13 02:20:57;;;;;;;2.22;0.70;;;;;;;22.10;36.50;101762.22;5032905;28;20029;-61
2022/05/13 02:23:23;;;;;;;2.53;0.90;;;;;;;22.10;36.50;101756.09;5032267;28;20029;-61
2022/05/13 02:25:50;;;;;;;2.92;0.80;;;;;;;22.10;36.52;101750.78;5032798;28;20405;-61
2022/05/13 02:28:16;;;;;;;4.00;0.82;;;;;;;22.11;36.55;101755.09;5033056;28;20025;-60
2022/05/13 02:30:41;;;;;;;3.20;0.90;;;;;;;22.10;36.43;101758.75;5032568;28;20408;-61
2022/05/13 02:33:07;;;;;;;2.15;0.90;;;;;;;22.10;36.68;101758.75;5033027;28;20025;-62
2022/05/13 02:35:33;;;;;;;2.20;0.80;;;;;;;22.09;36.63;101763.19;5032516;28;20384;-60
2022/05/13 02:37:59;;;;;;;3.33;0.90;;;;;;;22.07;36.76;101754.53;5032492;28;20297;-61
2022/05/13 02:43:12;;;;;;;3.80;1.42;;;;;;;22.06;36.54;101754.66;5032000;28;20039;-61
2022/05/13 02:45:38;;;;;;;3.85;0.90;;;;;;;22.06;36.59;101754.66;5032800;28;20026;-61
2022/05/13 02:48:03;;;;;;;2.35;0.75;;;;;;;22.06;36.60;101755.50;5032717;28;20113;-59
2022/05/13 02:50:28;;;;;;;2.88;1.00;;;;;;;22.06;36.40;101755.50;5031878;28;20143;-61
2022/05/13 02:52:54;;;;;;;2.72;1.08;;;;;;;22.07;36.41;101751.03;5032483;28;20029;-60
2022/05/13 02:55:19;;;;;;;3.53;0.80;;;;;;;22.06;36.59;101744.91;5032828;28;20029;-60
2022/05/13 02:57:45;;;;;;;2.33;0.80;;;;;;;22.03;36.71;101738.97;5031786;28;20029;-60
2022/05/13 03:00:11;;;;;;;2.67;0.93;;;;;;;22.05;36.63;101745.84;5032496;28;20031;-60
2022/05/13 03:02:37;;;;;;;2.63;1.00;;;;;;;22.05;36.39;101751.16;5032673;28;20021;-60
2022/05/13 03:05:03;;;;;;;2.70;0.90;;;;;;;22.04;36.62;101752.13;5031376;28;20029;-60
2022/05/13 03:07:31;;;;;;;3.20;1.00;;;;;;;22.04;36.61;101753.94;5032640;28;20061;-60
2022/05/13 03:09:59;;;;;;;3.15;1.00;;;;;;;22.03;36.62;101752.25;5032407;28;20029;-60
2022/05/13 03:12:24;;;;;;;4.05;0.90;;;;;;;22.03;36.61;101745.16;5031722;28;20397;-60
2022/05/13 03:14:49;;;;;;;4.77;1.10;;;;;;;22.02;36.63;101747.94;5032224;28;20025;-60
2022/05/13 03:17:15;;;;;;;3.40;1.00;;;;;;;22.02;36.81;101751.41;5032298;28;20782;-60
2022/05/13 03:19:40;;;;;;;4.43;1.05;;;;;;;22.02;36.53;101739.97;5031561;28;20278;-60
2022/05/13 03:22:08;;;;;;;2.55;0.80;;;;;;;22.02;36.59;101751.41;5032278;28;20091;-61
2022/05/13 03:24:43;;;;;;;3.30;0.93;;;;;;;22.02;36.86;101750.59;5031926;28;20034;-61
2022/05/13 03:27:08;;;;;;;3.20;0.95;;;;;;;22.00;36.94;101745.41;5031914;28;20880;-61
2022/05/13 03:29:35;;;;;;;4.05;1.10;;;;;;;21.99;36.64;101745.53;5032293;28;20026;-61
2022/05/13 03:32:01;;;;;;;4.80;1.25;;;;;;;21.99;36.88;101743.72;5031364;28;20036;-61
2022/05/13 03:34:27;;;;;;;3.47;1.00;;;;;;;21.99;36.74;101732.25;5032218;28;20465;-61
2022/05/13 03:36:54;;;;;;;3.78;0.90;;;;;;;21.98;36.91;101733.22;5031913;28;20028;-62
2022/05/13 03:39:19;;;;;;;3.10;1.00;;;;;;;21.98;36.75;101743.84;5031566;28;20068;-61
2022/05/13 03:41:44;;;;;;;5.37;1.10;;;;;;;21.99;37.01;101741.06;5032347;28;20030;-61
2022/05/13 03:44:10;;;;;;;3.33;1.20;;;;;;;21.98;36.63;101739.38;5031885;28;20780;-61
2022/05/13 03:46:35;;;;;;;3.88;0.93;;;;;;;21.98;36.96;101743.84;5031274;28;20037;-60
2022/05/13 03:49:01;;;;;;;2.00;0.85;;;;;;;21.99;36.88;101745.53;5032127;28;20533;-61
2022/05/13 03:51:27;;;;;;;3.90;0.95;;;;;;;;;;5032212;28;20026;-61
2022/05/13 03:53:52;;;;;;;4.43;1.20;;;;;;;21.98;36.87;101741.19;5031172;28;20025;-61
2022/05/13 03:56:17;;;;;;;3.67;0.90;;;;;;;21.96;36.72;101743.97;5032202;28;20104;-61
2022/05/13 03:58:42;;;;;;;2.63;0.83;;;;;;;;;;5032173;28;20377;-61
2022/05/13 04:01:08;;;;;;;3.30;1.00;;;;;;;21.96;36.90;101743.97;5033439;28;20341;-61
2022/05/13 04:03:33;;;;;;;2.92;1.10;;;;;;;21.96;36.87;101743.97;5035529;28;20175;-61
2022/05/13 04:08:57;;;;;;;4.33;1.17;;;;;;;21.95;36.92;101741.44;5035195;28;20040;-61
2022/05/13 04:11:31;;;;;;;3.28;1.00;;;;;;;21.94;36.94;101748.56;5035623;28;20025;-60
2022/05/13 04:16:41;;;;;;;3.13;1.20;;;;;;;21.94;36.98;101745.91;5035326;28;20460;-61
2022/05/13 04:19:06;;;;;;;4.95;1.17;;;;;;;21.95;36.77;101744.09;5035402;28;20029;-60
2022/05/13 04:21:35;;;;;;;3.60;1.00;;;;;;;21.93;36.85;101750.38;5034797;28;20017;-61
2022/05/13 04:24:05;;;;;;;2.38;0.90;;;;;;;21.93;36.91;101741.56;5035340;28;20126;-61
2022/05/13 04:26:30;;;;;;;3.38;0.90;;;;;;;21.93;36.98;101739.75;5035339;28;20388;-60
2022/05/13 04:28:56;;;;;;;3.20;1.17;;;;;;;21.92;36.87;101747.84;5034365;28;20029;-60
2022/05/13 04:31:25;;;;;;;3.58;1.10;;;;;;;21.92;37.16;101750.50;5035063;28;20036;-60
2022/05/13 04:33:51;;;;;;;3.00;1.05;;;;;;;21.93;37.02;101755.66;5034869;28;20060;-60
2022/05/13 04:36:18;;;;;;;2.28;0.98;;;;;;;21.93;37.05;101747.72;5034333;28;20461;-60
2022/05/13 04:38:44;;;;;;;2.85;1.08;;;;;;;21.93;37.06;101746.88;5034957;28;20037;-60
2022/05/13 04:43:54;;;;;;;;;;;;;;;21.93;37.03;101765.44;5034540;28;20036;-60
2022/05/13 04:46:19;;;;;;;2.95;1.05;;;;;;;21.93;36.82;101773.41;5035014;28;20275;-60
2022/05/13 04:48:47;;;;;;;4.15;1.00;;;;;;;21.92;36.84;101769.94;5034978;28;20021;-60
2022/05/13 04:51:12;;;;;;;4.10;1.15;;;;;;;21.92;37.09;101769.06;5033748;28;20101;-60
2022/05/13 04:53:39;;;;;;;4.32;1.20;;;;;;;21.92;37.10;101774.38;5034895;28;20108;-60
2022/05/13 04:56:07;;;;;;;4.15;1.27;;;;;;;21.91;36.87;101776.19;5033779;28;20030;-61
2022/05/13 04:58:33;;;;;;;5.68;1.30;;;;;;;21.89;37.14;101777.31;5034606;28;20393;-62
2022/05/13 05:01:00;;;;;;;4.75;1.20;;;;;;;21.91;37.12;101775.38;5034086;28;20124;-62
2022/05/13 05:03:27;;;;;;;3.20;1.23;;;;;;;21.91;37.11;101783.31;5033744;28;20029;-61
2022/05/13 05:05:53;;;;;;;3.42;1.00;;;;;;;21.92;37.05;101792.94;5034009;28;20032;-61
2022/05/13 05:08:18;;;;;;;3.13;1.10;;;;;;;21.91;37.24;101791.28;5034547;28;20021;-60
2022/05/13 05:10:45;;;;;;;3.78;1.30;;;;;;;21.92;37.05;101798.25;5033653;28;20026;-60
2022/05/13 05:13:20;;;;;;;3.95;1.30;;;;;;;21.90;37.12;101795.75;5033303;28;20412;-61
2022/05/13 05:15:45;;;;;;;3.50;0.90;;;;;;;21.91;37.26;101802.72;5034376;28;20057;-61
2022/05/13 05:18:11;;;;;;;4.18;1.30;;;;;;;21.91;37.35;101792.13;5032961;28;20072;-62
2022/05/13 05:20:37;;;;;;;3.33;0.98;;;;;;;21.92;37.31;101800.91;5034365;28;20032;-62
2022/05/13 05:23:02;;;;;;;3.30;0.90;;;;;;;21.90;37.23;101808.16;5034133;28;20025;-61
2022/05/13 05:25:29;;;;;;;5.18;1.42;;;;;;;21.89;37.29;101817.13;5033541;28;20409;-62
2022/05/13 05:27:58;;;;;;;3.33;1.05;;;;;;;21.89;37.34;101803.84;5033807;28;20029;-61
2022/05/13 05:30:25;;;;;;;5.00;1.30;;;;;;;21.89;37.24;101817.13;5034114;28;20032;-61
2022/05/13 05:32:51;;;;;;;2.78;1.20;;;;;;;21.89;37.40;101823.25;5032813;28;20041;-61
2022/05/13 05:35:20;;;;;;;4.25;1.15;;;;;;;21.88;37.39;101823.38;5034229;28;20021;-60
2022/05/13 05:37:46;;;;;;;4.72;1.23;;;;;;;21.88;37.39;101829.53;5034289;28;20021;-61
2022/05/13 05:40:12;;;;;;;4.05;1.17;;;;;;;21.86;37.36;101835.94;5032889;28;20401;-60
2022/05/13 05:42:39;;;;;;;2.88;0.93;;;;;;;21.84;37.53;101835.19;5033687;28;20022;-60
2022/05/13 05:45:07;;;;;;;4.53;1.10;;;;;;;21.83;37.81;101828.22;5033306;28;20079;-60
2022/05/13 05:47:32;;;;;;;3.53;1.00;;;;;;;21.82;37.94;101829.19;5032777;28;20429;-62
2022/05/13 05:49:59;;;;;;;4.88;1.40;;;;;;;21.81;37.96;101836.31;5033349;28;20057;-61
2022/05/13 05:52:26;;;;;;;4.45;1.17;;;;;;;21.82;38.07;101845.94;5032998;28;20079;-62
2022/05/13 05:57:39;;;;;;;3.58;1.02;;;;;;;21.84;38.22;101848.47;5033580;28;20037;-60
2022/05/13 06:00:06;;;;;;;5.33;1.60;;;;;;;21.85;38.30;101851.00;5032321;28;20034;-61
2022/05/13 06:02:32;;;;;;;6.13;1.48;;;;;;;21.85;38.49;101853.66;5033254;28;20270;-61
2022/05/13 06:04:57;;;;;;;2.80;1.00;;;;;;;21.85;38.50;101858.13;5033184;28;20028;-65
2022/05/13 06:07:26;;;;;;;3.95;1.20;;;;;;;21.87;38.20;101858.84;5032478;28;20116;-62
2022/05/13 06:09:52;;;;;;;4.68;1.50;;;;;;;21.88;38.43;101860.53;5033085;28;20036;-62
2022/05/13 06:12:18;;;;;;;3.33;1.10;;;;;;;21.89;38.63;101857.75;5033186;28;20013;-62
2022/05/13 06:14:43;;;;;;;4.18;1.10;;;;;;;21.89;38.53;101863.06;5032657;28;20666;-63
2022/05/13 06:17:08;;;;;;;5.65;1.40;;;;;;;21.90;38.57;101862.09;5033006;28;20038;-60
2022/05/13 06:19:34;;;;;;;4.35;1.20;;;;;;;21.89;38.54;101863.06;5033068;28;20500;-60
2022/05/13 06:21:59;;;;;;;4.78;1.40;;;;;;;21.92;38.57;101869.91;5031950;28;20036;-62
2022/05/13 06:24:25;;;;;;;4.63;1.35;;;;;;;21.91;38.64;101866.44;5032670;28;20029;-61
2022/05/13 06:26:51;;;;;;;4.13;1.20;;;;;;;21.94;38.95;101865.34;5032643;28;20056;-60
2022/05/13 06:29:19;;;;;;;3.97;1.10;;;;;;;21.97;39.07;101875.72;5032116;28;20036;-63
2022/05/13 06:31:44;;;;;;;3.38;1.08;;;;;;;21.98;39.11;101872.06;5032855;28;20554;-60
2022/05/13 06:34:10;;;;;;;5.30;1.40;;;;;;;21.98;39.31;101877.38;5032468;28;20061;-59
2022/05/13 06:36:36;;;;;;;4.32;1.58;;;;;;;22.01;39.15;101878.94;5032078;28;20033;-60
2022/05/13 06:39:03;;;;;;;5.00;1.20;;;;;;;22.02;39.13;101878.81;5032576;28;20508;-60
2022/05/13 06:41:28;;;;;;;5.10;1.40;;;;;;;22.03;39.23;101884.97;5032659;28;20156;-61
2022/05/13 06:43:54;;;;;;;3.95;1.20;;;;;;;22.05;39.22;101885.69;5032275;28;20493;-61
2022/05/13 06:46:22;;;;;;;5.60;1.30;;;;;;;22.05;39.36;101891.00;5032723;28;20465;-60
2022/05/13 06:48:47;;;;;;;4.50;1.25;;;;;;;22.03;39.63;101885.81;5032188;28;20462;-61
2022/05/13 06:51:13;;;;;;;8.07;1.60;;;;;;;22.05;39.61;101894.50;5032552;28;20055;-60
2022/05/13 06:53:38;;;;;;;4.93;1.17;;;;;;;22.08;39.18;101894.25;5032573;28;20036;-60
2022/05/13 06:56:04;;;;;;;5.43;1.23;;;;;;;22.09;39.33;101898.56;5031590;28;20051;-60
2022/05/13 06:58:29;;;;;;;3.22;1.10;;;;;;;22.11;39.38;101895.78;5033239;28;20497;-62
2022/05/13 07:01:01;;;;;;;5.15;1.23;;;;;;;22.06;39.35;101895.34;5033020;28;20033;-61
2022/05/13 07:03:26;;;;;;;5.43;1.40;;;;;;;22.05;39.61;101899.81;5034821;28;20022;-62
2022/05/13 07:05:55;;;;;;;7.60;1.90;;;;;;;22.07;39.73;101897.88;5032892;28;20028;-62
2022/05/13 07:08:20;;;;;;;4.15;1.25;;;;;;;22.09;39.50;101901.22;5032862;28;20108;-61
2022/05/13 07:10:45;;;;;;;5.90;1.20;;;;;;;22.14;39.56;101895.53;5033055;28;20064;-63
2022/05/13 07:13:12;;;;;;;7.07;1.50;;;;;;;22.16;39.57;101900.72;5033175;28;20114;-61
2022/05/13 07:15:37;;;;;;;5.22;1.40;;;;;;;22.18;39.35;101896.16;5034221;28;20285;-60
2022/05/13 07:18:03;;;;;;;4.55;1.30;;;;;;;22.20;39.64;101894.22;5033153;28;20042;-60
2022/05/13 07:20:28;;;;;;;5.97;1.35;;;;;;;22.24;39.52;101890.34;5033244;28;20370;-60
2022/05/13 07:22:55;;;;;;;6.85;1.90;;;;;;;22.27;39.31;101893.59;5033121;28;20492;-61
2022/05/13 07:25:21;;;;;;;6.75;2.00;;;;;;;22.27;39.30;101892.72;5032317;28;20029;-60
2022/05/13 07:27:49;;;;;;;4.45;1.70;;;;;;;22.27;39.21;101896.25;5032674;28;20021;-61
2022/05/13 07:30:15;;;;;;;7.13;1.60;;;;;;;22.30;39.46;101896.97;5033662;28;20041;-62
2022/05/13 07:32:41;;;;;;;7.22;1.40;;;;;;;22.35;39.53;101898.28;5034126;28;20542;-63
2022/05/13 07:35:06;;;;;;;5.20;1.40;;;;;;;22.40;39.44;101901.41;5033160;28;20112;-63
2022/05/13 07:37:32;;;;;;;4.50;1.50;;;;;;;22.44;39.54;101905.47;5037408;28;20104;-62
2022/05/13 07:42:45;;;;;;;5.57;1.65;;;;;;;22.54;39.19;101904.72;5036804;28;20028;-60
2022/05/13 07:45:11;;;;;;;4.72;1.33;;;;;;;22.58;39.27;101909.66;5035007;28;20457;-62
2022/05/13 07:47:39;;;;;;;9.85;1.80;;;;;;;22.57;38.43;101905.31;5035935;28;20027;-61
2022/05/13 07:50:06;;;;;;;6.68;2.00;;;;;;;22.50;38.03;101909.44;5035525;28;20036;-61
2022/05/13 07:52:32;;;;;;;7.45;2.03;;;;;;;22.47;38.55;101907.03;5034903;28;20081;-60
2022/05/13 07:54:57;;;;;;;5.28;1.77;;;;;;;22.44;38.89;101917.91;5035718;28;20068;-60
2022/05/13 07:57:22;;;;;;;6.63;1.60;;;;;;;22.41;38.84;101915.50;5036157;28;20076;-60
2022/05/13 08:02:31;;;;;;;5.00;1.40;;;;;;;22.43;39.67;101911.78;5036319;28;20126;-59
2022/05/13 08:04:56;;;;;;;4.77;2.10;;;;;;;22.47;39.50;101915.00;5035467;28;20266;-61
2022/05/13 08:07:21;;;;;;;7.30;1.63;;;;;;;22.51;39.43;101928.88;5035323;28;20079;-59
2022/05/13 08:09:47;;;;;;;6.97;1.85;;;;;;;22.53;39.21;101921.63;5035829;28;20281;-61
2022/05/13 08:12:12;;;;;;;5.97;1.50;;;;;;;22.57;39.08;101928.38;5035614;28;20389;-60
2022/05/13 08:14:37;;;;;;;6.97;1.60;;;;;;;22.57;39.32;101923.91;5035101;28;20492;-60
2022/05/13 08:17:08;;;;;;;4.47;1.55;;;;;;;22.61;39.43;101921.84;5035237;28;20489;-60
2022/05/13 08:19:34;;;;;;;5.63;1.40;;;;;;;22.63;39.06;101931.34;5035376;28;20025;-60
2022/05/13 08:21:59;;;;;;;7.10;1.60;;;;;;;22.67;39.09;101936.41;5034672;28;20033;-59
2022/05/13 08:24:25;;;;;;;4.55;1.83;;;;;;;22.66;38.92;101930.25;5035427;28;20270;-62
2022/05/13 08:26:54;;;;;;;8.80;1.57;;;;;;;22.67;39.42;101939.06;5035983;28;20029;-62
2022/05/13 08:29:19;;;;;;;5.03;1.58;;;;;;;22.67;39.50;101937.28;5035671;28;20174;-61
2022/05/13 08:31:44;;;;;;;4.57;1.23;;;;;;;22.71;39.09;101941.34;5036991;28;20041;-63
2022/05/13 08:34:10;;;;;;;4.53;1.27;;;;;;;22.72;39.26;101951.00;5034596;28;20754;-64
2022/05/13 08:36:35;;;;;;;4.65;1.42;;;;;;;22.72;38.94;101936.88;5035421;28;20030;-63
2022/05/13 08:39:00;;;;;;;5.47;1.50;;;;;;;22.72;39.08;101935.06;5035879;28;20049;-61
2022/05/13 08:41:42;;;;;;;5.43;1.40;;;;;;;22.75;39.00;101929.50;5034683;28;20100;-60
2022/05/13 08:44:15;;;;;;;4.63;1.45;;;;;;;22.77;39.00;101932.84;5035709;28;20040;-61
2022/05/13 08:46:42;;;;;;;8.10;2.35;;;;;;;22.80;38.98;101945.06;5035729;28;20112;-61
2022/05/13 08:49:16;;;;;;;8.73;2.50;;;;;;;22.81;38.86;101934.28;5036212;28;20039;-60
2022/05/13 08:55:00;;;;;;;13.02;2.85;;;;;;;22.88;38.93;101941.75;5019840;28;20172;-61
2022/05/13 08:57:38;;;;;;;16.35;3.38;;;;;;;22.90;38.97;101942.47;5034439;28;20032;-60
2022/05/13 09:00:11;;;;;;;14.40;3.35;;;;;;;22.91;38.97;101938.84;5035121;28;20026;-60
2022/05/13 09:02:40;;;;;;;13.18;2.88;;;;;;;22.91;38.80;101938.84;5034264;28;20501;-60
2022/05/13 09:05:17;;;;;;;9.68;2.50;;;;;;;22.91;38.81;101938.84;5034912;28;20026;-60
2022/05/13 09:07:44;;;;;;;10.10;2.80;;;;;;;22.94;39.11;101941.22;5034772;28;20083;-62
2022/05/13 09:10:10;;;;;;;11.95;2.72;;;;;;;22.93;38.99;101945.69;5033858;28;20099;-60
2022/05/13 09:13:01;;;;;;;11.15;2.50;;;;;;;22.91;38.38;101955.63;5034665;28;20481;-59
2022/05/13 09:15:39;;;;;;;8.95;2.33;;;;;;;22.91;38.09;101938.84;5034598;28;20116;-59
2022/05/13 09:18:32;;;;;;;7.78;2.13;;;;;;;22.91;38.34;101942.31;5033627;28;20076;-61
2022/05/13 09:21:16;;;;;;;7.68;2.10;;;;;;;22.91;37.76;101942.31;5034778;28;20025;-60
2022/05/13 09:23:42;;;;;;;8.73;1.90;;;;;;;22.93;38.13;101942.19;5034662;28;20401;-59
2022/05/13 09:26:13;;;;;;;6.05;1.92;;;;;;;22.94;37.87;101939.41;5033919;28;20030;-59
2022/05/13 09:29:07;;;;;;;9.07;2.17;;;;;;;22.94;37.64;101938.53;5034534;28;20029;-60
2022/05/13 09:31:45;;;;;;;10.52;2.30;;;;;;;22.93;37.63;101952.84;5034054;28;20026;-61
2022/05/13 09:34:39;;;;;;;6.30;1.70;;;;;;;22.91;37.76;101955.63;5034265;28;20163;-61
2022/05/13 09:37:25;;;;;;;8.05;2.17;;;;;;;22.92;38.04;101940.50;5033944;28;20044;-60
2022/05/13 09:40:06;;;;;;;9.45;3.08;;;;;;;22.91;38.01;101950.31;5033590;28;20461;-62
2022/05/13 09:42:46;;;;;;;7.78;2.10;;;;;;;22.92;38.34;101956.44;5033888;28;20033;-63
2022/05/13 09:45:33;;;;;;;7.88;1.88;;;;;;;22.93;38.41;101958.97;5032856;28;20037;-61
2022/05/13 09:48:06;;;;;;;7.82;1.50;;;;;;;22.96;38.23;101953.41;5033316;28;20057;-61
2022/05/13 09:50:51;;;;;;;7.38;1.83;;;;;;;23.03;38.15;101945.75;5033725;28;20462;-62
2022/05/13 09:53:22;;;;;;;8.18;1.60;;;;;;;23.06;38.16;101963.25;5032920;28;20028;-62
2022/05/13 09:55:55;;;;;;;9.95;2.08;;;;;;;23.07;38.06;101960.47;5035754;28;20030;-63
2022/05/13 09:58:33;;;;;;;8.80;2.08;;;;;;;23.08;37.49;101959.53;5034180;28;20025;-62
2022/05/13 10:01:06;;;;;;;8.15;1.90;;;;;;;23.09;37.46;101953.22;5034662;28;20052;-63
2022/05/13 10:03:39;;;;;;;8.68;1.50;;;;;;;23.10;37.47;101946.94;5035207;28;20025;-59
2022/05/13 10:06:10;;;;;;;6.78;1.60;;;;;;;23.12;37.60;101952.97;5032890;28;20021;-60
2022/05/13 10:08:39;;;;;;;6.88;1.80;;;;;;;23.14;37.73;101955.50;5035268;28;20029;-64
2022/05/13 10:14:06;;;;;;;5.53;1.65;;;;;;;23.17;37.66;101965.88;5037048;28;20113;-62
2022/05/13 10:16:39;;;;;;;6.47;1.50;;;;;;;23.17;37.20;101968.53;5038541;28;20072;-62
2022/05/13 10:19:17;;;;;;;6.70;1.73;;;;;;;23.16;37.53;101969.50;5037659;28;20018;-60
2022/05/13 10:22:04;;;;;;;5.05;1.33;;;;;;;23.17;37.52;101974.69;5034779;28;20044;-61
2022/05/13 10:24:59;;;;;;;4.75;1.40;;;;;;;23.14;37.86;101969.63;5033338;28;20432;-58
2022/05/13 10:27:51;;;;;;;7.05;2.35;;;;;;;23.12;37.90;101962.78;5032485;28;20029;-59
2022/05/13 10:30:56;;;;;;;6.75;1.33;;;;;;;23.12;37.70;101960.13;5036006;28;20420;-60
2022/05/13 10:33:32;;;;;;;;;;;;;;;23.13;37.50;101964.44;5034896;28;20033;-61
2022/05/13 10:36:12;;;;;;;8.73;1.50;;;;;;;23.13;37.78;101967.97;5032432;28;19913;-61
2022/05/13 10:38:58;;;;;;;7.47;1.30;;;;;;;23.13;37.60;101967.97;5033142;28;20074;-61
2022/05/13 10:41:45;;;;;;;5.50;1.52;;;;;;;23.11;37.21;101964.56;5032174;28;20117;-61
2022/05/13 10:44:32;;;;;;;4.22;1.00;;;;;;;23.12;37.60;101957.47;5032909;28;20028;-60
2022/05/13 10:47:01;;;;;;;7.65;1.85;;;;;;;23.11;37.48;101958.41;5032627;28;20025;-62
2022/05/13 10:49:53;;;;;;;6.43;1.27;;;;;;;23.11;37.14;101964.56;5031842;28;20504;-59
2022/05/13 10:52:42;;;;;;;5.78;1.60;;;;;;;23.14;37.28;101961.66;5031721;28;20037;-60
2022/05/13 10:55:20;;;;;;;4.88;1.35;;;;;;;23.18;37.57;101957.78;5031493;28;20561;-60
2022/05/13 10:58:08;;;;;;;6.32;1.52;;;;;;;23.25;37.34;101959.91;5032488;28;20026;-60
2022/05/13 11:00:44;;;;;;;4.15;1.50;;;;;;;23.26;37.51;101967.75;5032734;28;20034;-60
2022/05/13 11:03:28;;;;;;;8.45;1.55;;;;;;;23.29;37.20;101964.84;5031490;28;20031;-61
2022/05/13 11:06:21;;;;;;;4.97;1.50;;;;;;;23.28;37.73;101965.78;5032279;28;20487;-59
2022/05/13 11:08:59;;;;;;;6.60;1.85;;;;;;;23.26;36.96;101961.59;5032762;28;20485;-62
2022/05/13 11:11:35;;;;;;;5.82;1.63;;;;;;;23.25;36.72;101962.56;5036987;28;20036;-62
2022/05/13 11:14:09;;;;;;;4.82;1.58;;;;;;;23.23;36.86;101962.69;5036615;28;20052;-60
2022/05/13 11:16:56;;;;;;;6.30;1.73;;;;;;;23.20;37.17;101967.44;5036436;28;20036;-61
2022/05/13 11:20:06;;;;;;;4.28;1.20;;;;;;;23.18;37.82;101965.75;5038659;28;20056;-61
2022/05/13 11:22:39;;;;;;;7.35;1.80;;;;;;;23.18;37.70;101972.91;5015621;28;20117;-61
2022/05/13 11:28:21;;;;;;;5.10;1.42;;;;;;;23.14;37.39;101969.63;5029211;28;20499;-61
2022/05/13 11:30:52;;;;;;;6.82;1.70;;;;;;;23.16;37.56;101967.69;5038375;28;20029;-62
2022/05/13 11:33:32;;;;;;;6.03;1.85;;;;;;;23.18;37.63;101971.06;5039542;28;20025;-62
2022/05/13 11:36:22;;;;;;;7.03;1.30;;;;;;;23.22;37.80;101973.47;5037699;28;20033;-61
2022/05/13 11:39:10;;;;;;;6.05;1.35;;;;;;;23.22;37.54;101960.16;5035697;28;20040;-58
2022/05/13 11:41:56;;;;;;;8.27;1.73;;;;;;;23.24;37.62;101959.06;5036082;28;20017;-60
2022/05/13 11:44:44;;;;;;;6.13;1.25;;;;;;;23.26;37.86;101958.94;5035415;28;20033;-59
2022/05/13 11:47:17;;;;;;;6.15;1.50;;;;;;;23.31;37.64;101962.03;5035851;28;20057;-59
2022/05/13 11:49:45;;;;;;;7.45;2.17;;;;;;;23.32;37.07;101961.03;5036008;28;20068;-59
2022/05/13 11:52:13;;;;;;;6.15;1.88;;;;;;;23.35;37.29;101968.75;5035050;28;20109;-59
2022/05/13 11:54:41;;;;;;;4.55;1.60;;;;;;;23.34;37.61;101961.78;5036204;28;20026;-59
2022/05/13 11:57:24;;;;;;;7.85;1.30;;;;;;;23.33;37.52;101974.22;5035793;28;20017;-59
2022/05/13 12:00:09;;;;;;;5.20;1.48;;;;;;;23.34;37.52;101970.59;5035017;28;20029;-60
2022/05/13 12:02:51;;;;;;;4.43;1.33;;;;;;;23.34;37.66;101970.59;5035743;28;20022;-60
2022/05/13 12:05:16;;;;;;;5.80;1.23;;;;;;;23.34;37.67;101967.94;5035338;28;20377;-64
2022/05/13 12:08:03;;;;;;;4.93;1.67;;;;;;;23.30;37.71;101971.81;5036074;28;20040;-62
2022/05/13 12:11:00;;;;;;;5.57;1.35;;;;;;;23.25;37.88;101974.03;5036067;28;20064;-59
2022/05/13 12:13:33;;;;;;;4.68;1.20;;;;;;;23.23;37.85;101970.69;5035048;28;20392;-59